Aviation Digital Data Service (ADDS)

Output produced by METARs form (1159 UTC 19 January 2019)
found at http://www.aviationweather.gov/metar/data/
 
Forecast for: OPRN (ISLAMABAD (CIV/M, PK)
Text: TAF OPRN 190930Z 1912/2018 24012KT 4000 HZ SCT040 BKN080
Forecast period: 1200 UTC 19 January 2019 to 0600 UTC 20 January 2019
Forecast type: FROM: standard forecast or significant change
Winds: from the WSW (240 degrees) at 14 MPH (12 knots; 6.2 m/s)
Visibility: 2.49 miles (4.01 km)
Ceiling: 8000 feet AGL
Clouds: scattered clouds at 4000 feet AGL
broken clouds at 8000 feet AGL
Weather: HZ  (haze)
Text: TEMPO 1921/1924 -RA
Forecast period: 2100 UTC 19 January 2019 to 0000 UTC 20 January 2019
Forecast type: TEMPORARY: The following changes expected for less than half the time period
Visibility: missing
Ceiling: unknown
Clouds: missing
Weather: -RA  (light rain)
Text: BECMG 2006/2008 24010G20KT 5000 RA FEW030TCU SCT040 OVC080
Forecast period: 0600 to 1800 UTC 20 January 2019
Forecast type: BECOMING: Conditions expected to become as follows by 0800 UTC 20 January 2019
Winds: from the WSW (240 degrees) at 12 MPH (10 knots; 5.1 m/s)
gusting to 23 MPH (20 knots; 10.3 m/s)
Visibility: 3 miles (5 km)
Ceiling: 8000 feet AGL
Clouds: few clouds at 3000 feet AGL
scattered clouds at 4000 feet AGL
overcast cloud deck at 8000 feet AGL
Weather: RA  (moderate rain)